Time;durP1;ratioP1;P1;durP2;ratioP2;P2;SDS_P1;SDS_P2;PMS_P1;PMS_P2;Temp;Humidity;BMP_temperature;BMP_pressure;BME280_temperature;BME280_humidity;BME280_pressure;Samples;Min_cycle;Max_cycle;Signal;HPM_P1;HPM_P2
2023/11/09 00:00:01;;;;;;;0.00;0.00;;;20.00;52.60;;;;;;5010663;28;20223;-50
2023/11/09 00:02:32;;;;;;;0.10;0.10;;;20.00;52.50;;;;;;5009639;28;20242;-53
2023/11/09 00:05:03;;;;;;;0.00;0.00;;;20.00;52.50;;;;;;5009872;28;20300;-50
2023/11/09 00:07:34;;;;;;;0.00;0.00;;;20.10;52.50;;;;;;5009604;28;20268;-53
2023/11/09 00:10:08;;;;;;;0.00;0.00;;;20.00;52.40;;;;;;5008586;28;20197;-53
2023/11/09 00:12:40;;;;;;;0.00;0.00;;;20.00;52.40;;;;;;5009459;28;20290;-52
2023/11/09 00:15:12;;;;;;;0.00;0.00;;;20.10;52.40;;;;;;5010624;28;20609;-56
2023/11/09 00:17:43;;;;;;;0.00;0.00;;;20.00;52.30;;;;;;5011254;28;20231;-52
2023/11/09 00:20:17;;;;;;;0.00;0.00;;;20.00;52.30;;;;;;5011865;28;20527;-55
2023/11/09 00:22:48;;;;;;;0.00;0.00;;;20.00;52.30;;;;;;5010658;28;20624;-54
2023/11/09 00:25:21;;;;;;;0.10;0.10;;;20.00;52.20;;;;;;5010971;28;20575;-54
2023/11/09 00:27:52;;;;;;;0.10;0.10;;;20.00;52.20;;;;;;5000996;28;20532;-54
2023/11/09 00:30:23;;;;;;;0.00;0.00;;;20.00;52.20;;;;;;4998713;28;20546;-52
2023/11/09 00:32:54;;;;;;;0.10;0.10;;;20.00;52.10;;;;;;5011519;28;20551;-51
2023/11/09 00:35:26;;;;;;;0.00;0.00;;;20.00;52.00;;;;;;5011132;28;20235;-52
2023/11/09 00:37:57;;;;;;;0.00;0.00;;;20.00;52.00;;;;;;5016098;28;20341;-51
2023/11/09 00:40:31;;;;;;;0.00;0.00;;;20.00;51.90;;;;;;5023497;28;20515;-49
2023/11/09 00:43:02;;;;;;;0.00;0.00;;;20.10;51.90;;;;;;5010947;28;20282;-47
2023/11/09 00:45:34;;;;;;;0.10;0.10;;;20.00;51.80;;;;;;5010915;28;20579;-51
2023/11/09 00:48:06;;;;;;;0.00;0.00;;;20.10;51.80;;;;;;5010663;28;20339;-49
2023/11/09 00:50:37;;;;;;;0.00;0.00;;;20.00;51.80;;;;;;5011501;28;20365;-48
2023/11/09 00:53:09;;;;;;;0.10;0.10;;;20.10;51.80;;;;;;5011225;28;20554;-50
2023/11/09 00:55:42;;;;;;;0.10;0.10;;;20.10;51.80;;;;;;5024428;28;20626;-53
2023/11/09 00:58:14;;;;;;;0.00;0.00;;;20.10;51.80;;;;;;5010780;28;20707;-49
2023/11/09 01:00:45;;;;;;;0.00;0.00;;;20.10;51.80;;;;;;5011608;28;20294;-50
2023/11/09 01:03:16;;;;;;;0.00;0.00;;;20.10;51.80;;;;;;5010164;28;20239;-53
2023/11/09 01:05:48;;;;;;;0.05;0.05;;;20.10;51.80;;;;;;5011281;28;20306;-51
2023/11/09 01:08:20;;;;;;;0.03;0.03;;;20.10;51.70;;;;;;5010104;28;20509;-52
2023/11/09 01:10:54;;;;;;;0.00;0.00;;;20.10;51.70;;;;;;5010532;28;20271;-50
2023/11/09 01:13:25;;;;;;;0.10;0.10;;;20.10;51.70;;;;;;5010847;28;20548;-53
2023/11/09 01:15:57;;;;;;;0.00;0.00;;;20.10;51.50;;;;;;5010142;28;20291;-54
2023/11/09 01:18:28;;;;;;;0.00;0.00;;;20.10;51.50;;;;;;5011171;28;20229;-53
2023/11/09 01:20:59;;;;;;;0.00;0.00;;;20.10;51.50;;;;;;5011444;28;20545;-54
2023/11/09 01:23:30;;;;;;;0.10;0.10;;;20.10;51.60;;;;;;5014324;28;20588;-53
2023/11/09 01:26:03;;;;;;;0.00;0.00;;;20.10;51.60;;;;;;5014269;28;20591;-51
2023/11/09 01:28:34;;;;;;;0.00;0.00;;;20.10;51.60;;;;;;4998333;28;20193;-52
2023/11/09 01:31:06;;;;;;;0.00;0.00;;;20.10;51.60;;;;;;5008614;28;20544;-51
2023/11/09 01:33:37;;;;;;;0.00;0.00;;;20.10;51.60;;;;;;5013883;28;20215;-51
2023/11/09 01:36:09;;;;;;;0.00;0.00;;;20.10;51.60;;;;;;5014457;28;20702;-49
2023/11/09 01:38:40;;;;;;;0.00;0.00;;;20.10;51.60;;;;;;5014266;28;20600;-50
2023/11/09 01:41:13;;;;;;;0.00;0.00;;;20.10;51.60;;;;;;5014806;28;20511;-51
2023/11/09 01:43:56;;;;;;;0.00;0.00;;;20.10;51.50;;;;;;5013083;28;20224;-47
2023/11/09 01:46:28;;;;;;;0.00;0.00;;;20.10;51.50;;;;;;5013949;28;20217;-48
2023/11/09 01:49:00;;;;;;;0.00;0.00;;;20.10;51.50;;;;;;5014623;28;20197;-51
2023/11/09 01:51:32;;;;;;;0.00;0.00;;;20.10;51.50;;;;;;5014689;28;20192;-50
2023/11/09 01:54:02;;;;;;;0.00;0.00;;;20.10;51.50;;;;;;5014190;28;20564;-52
2023/11/09 01:56:37;;;;;;;0.10;0.10;;;20.10;51.50;;;;;;5013662;28;20234;-51
2023/11/09 01:59:09;;;;;;;0.00;0.00;;;20.10;51.50;;;;;;5013154;28;20208;-50
2023/11/09 02:01:42;;;;;;;0.00;0.00;;;20.10;51.50;;;;;;5014149;28;20200;-48
2023/11/09 02:04:13;;;;;;;0.00;0.00;;;20.10;51.40;;;;;;5023990;28;20562;-49
2023/11/09 02:06:45;;;;;;;0.00;0.00;;;20.10;51.40;;;;;;5031419;28;20216;-47
2023/11/09 02:09:17;;;;;;;0.00;0.00;;;20.10;51.40;;;;;;5012890;28;20543;-50
2023/11/09 02:11:51;;;;;;;0.00;0.00;;;20.20;51.40;;;;;;5013004;28;20542;-52
2023/11/09 02:14:23;;;;;;;0.10;0.10;;;20.20;51.40;;;;;;5013000;28;20633;-51
2023/11/09 02:16:56;;;;;;;0.00;0.00;;;20.20;51.30;;;;;;5013414;28;20701;-45
2023/11/09 02:19:28;;;;;;;0.10;0.10;;;20.20;51.30;;;;;;5014126;28;20201;-52
2023/11/09 02:22:00;;;;;;;0.05;0.05;;;20.20;51.30;;;;;;5014464;28;20223;-52
2023/11/09 02:24:34;;;;;;;0.10;0.10;;;20.20;51.30;;;;;;5012477;28;20224;-47
2023/11/09 02:27:06;;;;;;;0.00;0.00;;;20.30;51.30;;;;;;5013688;28;20212;-52
2023/11/09 02:29:39;;;;;;;0.10;0.10;;;20.30;51.30;;;;;;5013563;28;20644;-49
2023/11/09 02:32:10;;;;;;;0.10;0.10;;;20.30;51.30;;;;;;5013660;28;20577;-53
2023/11/09 02:34:41;;;;;;;0.08;0.08;;;20.30;51.30;;;;;;5016099;28;20639;-54
2023/11/09 02:37:13;;;;;;;0.00;0.00;;;20.30;51.30;;;;;;5024934;28;20537;-52
2023/11/09 02:39:46;;;;;;;0.10;0.10;;;20.30;51.30;;;;;;5012693;28;20570;-49
2023/11/09 02:42:18;;;;;;;0.00;0.00;;;20.30;51.30;;;;;;5013346;28;20512;-50
2023/11/09 02:44:49;;;;;;;0.00;0.00;;;20.30;51.30;;;;;;5013188;28;20575;-50
2023/11/09 02:47:20;;;;;;;0.08;0.08;;;20.30;51.30;;;;;;5012729;28;20545;-52
2023/11/09 02:49:51;;;;;;;0.00;0.00;;;20.30;51.20;;;;;;5030831;28;20210;-51
2023/11/09 02:52:23;;;;;;;0.00;0.00;;;20.30;51.20;;;;;;4997161;28;20185;-49
2023/11/09 02:54:59;;;;;;;0.00;0.00;;;20.30;51.20;;;;;;5013227;28;20209;-53
2023/11/09 02:57:30;;;;;;;0.10;0.10;;;20.30;51.20;;;;;;5012408;28;20584;-47
2023/11/09 03:00:04;;;;;;;0.00;0.00;;;20.30;51.20;;;;;;5013379;28;20228;-47
2023/11/09 03:02:36;;;;;;;0.00;0.00;;;20.30;51.10;;;;;;5012529;28;20551;-53
2023/11/09 03:05:07;;;;;;;0.10;0.10;;;20.30;51.10;;;;;;5012275;28;20565;-52
2023/11/09 03:07:40;;;;;;;0.10;0.10;;;20.30;51.10;;;;;;5012680;28;20554;-52
2023/11/09 03:10:13;;;;;;;0.00;0.00;;;20.40;51.20;;;;;;5012942;28;20555;-52
2023/11/09 03:12:45;;;;;;;0.10;0.10;;;20.30;51.10;;;;;;5007733;28;20514;-51
2023/11/09 03:15:19;;;;;;;0.00;0.00;;;20.40;51.10;;;;;;4999500;28;20563;-50
2023/11/09 03:17:50;;;;;;;0.00;0.00;;;20.40;51.20;;;;;;5013022;28;20551;-50
2023/11/09 03:20:23;;;;;;;0.00;0.00;;;20.40;51.10;;;;;;5011898;28;20744;-50
2023/11/09 03:22:55;;;;;;;0.00;0.00;;;20.30;51.00;;;;;;5012639;28;20671;-50
2023/11/09 03:25:29;;;;;;;0.10;0.10;;;20.30;51.00;;;;;;5012404;28;20650;-51
2023/11/09 03:28:00;;;;;;;0.00;0.00;;;20.30;51.00;;;;;;5011448;28;20196;-49
2023/11/09 03:30:33;;;;;;;0.00;0.00;;;20.40;51.00;;;;;;5012170;28;20732;-50
2023/11/09 03:33:07;;;;;;;0.00;0.00;;;20.40;51.00;;;;;;5012228;28;20587;-52
2023/11/09 03:35:41;;;;;;;0.00;0.00;;;20.40;51.00;;;;;;5012348;28;20216;-51
2023/11/09 03:38:13;;;;;;;0.00;0.00;;;20.40;51.00;;;;;;5012678;28;20307;-51
2023/11/09 03:40:47;;;;;;;0.00;0.00;;;20.30;50.90;;;;;;5011733;28;20296;-48
2023/11/09 03:43:18;;;;;;;0.10;0.10;;;20.40;51.00;;;;;;5011333;28;20259;-49
2023/11/09 03:45:49;;;;;;;0.00;0.00;;;20.40;51.00;;;;;;5011881;28;20270;-53
2023/11/09 03:48:20;;;;;;;0.00;0.00;;;20.40;51.10;;;;;;5011854;28;20189;-48
2023/11/09 03:50:51;;;;;;;0.00;0.00;;;20.40;51.10;;;;;;5012314;28;20204;-49
2023/11/09 03:53:23;;;;;;;0.10;0.10;;;20.40;51.50;;;;;;5011871;28;20193;-51
2023/11/09 03:55:57;;;;;;;0.00;0.00;;;20.40;51.60;;;;;;5011581;28;20212;-52
2023/11/09 03:58:28;;;;;;;0.10;0.10;;;20.40;51.50;;;;;;5011728;28;20189;-50
2023/11/09 04:00:59;;;;;;;0.10;0.10;;;20.40;51.50;;;;;;5011456;28;20193;-53
2023/11/09 04:03:30;;;;;;;0.10;0.10;;;20.40;51.40;;;;;;5011958;28;20552;-50
2023/11/09 04:06:01;;;;;;;0.03;0.03;;;20.40;51.30;;;;;;5011272;28;20213;-51
2023/11/09 04:08:32;;;;;;;0.00;0.00;;;20.40;51.20;;;;;;5011480;28;20181;-50
2023/11/09 04:11:05;;;;;;;0.00;0.00;;;20.40;51.10;;;;;;5011851;28;20197;-51
2023/11/09 04:13:37;;;;;;;0.00;0.00;;;20.40;51.10;;;;;;5023300;28;20559;-52
2023/11/09 04:16:08;;;;;;;0.00;0.00;;;20.40;51.10;;;;;;5030869;28;20282;-50
2023/11/09 04:18:40;;;;;;;0.00;0.00;;;20.40;51.00;;;;;;5020344;28;20185;-52
2023/11/09 04:21:11;;;;;;;0.00;0.00;;;20.40;51.00;;;;;;5011030;28;20353;-51
2023/11/09 04:23:43;;;;;;;0.00;0.00;;;20.40;51.10;;;;;;5011066;28;20718;-51
2023/11/09 04:26:16;;;;;;;0.10;0.10;;;20.40;51.10;;;;;;5011307;28;20291;-49
2023/11/09 04:28:50;;;;;;;0.00;0.00;;;20.40;51.10;;;;;;5018959;28;20204;-52
2023/11/09 04:31:23;;;;;;;0.00;0.00;;;20.40;51.10;;;;;;5011003;28;20200;-52
2023/11/09 04:33:58;;;;;;;0.00;0.00;;;20.40;51.10;;;;;;5010825;28;20184;-51
2023/11/09 04:36:29;;;;;;;0.00;0.00;;;20.40;51.10;;;;;;5011366;28;20220;-50
2023/11/09 04:39:01;;;;;;;0.10;0.10;;;20.40;51.10;;;;;;5010860;28;20193;-51
2023/11/09 04:41:34;;;;;;;0.10;0.10;;;20.40;51.10;;;;;;5011142;28;20232;-50
2023/11/09 04:44:11;;;;;;;0.00;0.00;;;20.40;51.10;;;;;;5010037;28;20221;-50
2023/11/09 04:46:42;;;;;;;0.10;0.10;;;20.40;51.10;;;;;;5010477;28;20204;-51
2023/11/09 04:49:13;;;;;;;0.00;0.00;;;20.40;51.10;;;;;;5011614;28;20208;-48
2023/11/09 04:51:46;;;;;;;0.00;0.00;;;20.40;51.10;;;;;;5010997;28;20557;-48
2023/11/09 04:54:19;;;;;;;0.00;0.00;;;20.40;51.00;;;;;;5013145;28;20196;-54
2023/11/09 04:58:44;;;;;;;0.00;0.00;;;20.40;51.00;;;;;;5033450;28;20644;-52
2023/11/09 05:08:17;;;;;;;0.00;0.00;;;20.40;51.00;;;;;;4999769;28;20467;-53
2023/11/09 05:10:49;;;;;;;0.10;0.10;;;20.40;51.00;;;;;;5014278;28;20425;-53
2023/11/09 05:13:22;;;;;;;0.00;0.00;;;20.40;51.00;;;;;;5014571;28;20537;-48
2023/11/09 05:15:53;;;;;;;0.00;0.00;;;20.40;51.10;;;;;;5015409;28;20209;-52
2023/11/09 05:18:24;;;;;;;0.10;0.10;;;20.40;51.10;;;;;;5014433;28;20539;-49
2023/11/09 05:20:56;;;;;;;0.10;0.10;;;20.40;51.10;;;;;;5014444;28;20289;-53
2023/11/09 05:23:27;;;;;;;0.00;0.00;;;20.40;51.10;;;;;;5011938;28;20285;-50
2023/11/09 05:25:58;;;;;;;0.10;0.10;;;20.40;51.00;;;;;;5013923;28;20581;-50
2023/11/09 05:28:32;;;;;;;0.10;0.10;;;20.40;51.00;;;;;;5013870;28;20181;-53
2023/11/09 05:31:04;;;;;;;0.10;0.10;;;20.40;51.00;;;;;;5014467;28;20196;-49
2023/11/09 05:33:37;;;;;;;0.00;0.00;;;20.40;50.90;;;;;;5014435;28;20215;-48
2023/11/09 05:36:09;;;;;;;0.00;0.00;;;20.40;50.90;;;;;;5013961;28;20223;-51
2023/11/09 05:38:42;;;;;;;0.00;0.00;;;20.40;50.80;;;;;;5014173;28;20280;-49
2023/11/09 05:41:14;;;;;;;0.00;0.00;;;20.40;50.80;;;;;;5013747;28;20271;-51
2023/11/09 05:43:48;;;;;;;0.00;0.00;;;20.40;50.80;;;;;;5013576;28;20612;-54
2023/11/09 05:46:20;;;;;;;0.00;0.00;;;20.40;50.80;;;;;;5013943;28;20637;-52
2023/11/09 05:48:52;;;;;;;0.00;0.00;;;20.40;50.80;;;;;;5014946;28;20606;-55
2023/11/09 05:51:28;;;;;;;0.00;0.00;;;20.40;50.80;;;;;;5012313;28;20513;-50
2023/11/09 05:56:30;;;;;;;0.10;0.10;;;20.40;50.90;;;;;;5011219;28;20225;-51
2023/11/09 05:59:03;;;;;;;0.00;0.00;;;20.40;50.90;;;;;;5013490;28;20193;-52
2023/11/09 06:01:35;;;;;;;0.10;0.10;;;20.40;50.90;;;;;;5013786;28;20223;-52
2023/11/09 06:04:06;;;;;;;0.00;0.00;;;20.40;51.00;;;;;;5012215;28;20543;-52
2023/11/09 06:06:38;;;;;;;0.00;0.00;;;20.40;51.00;;;;;;5013624;28;20659;-51
2023/11/09 06:09:10;;;;;;;0.00;0.00;;;20.40;50.90;;;;;;5012626;28;20562;-52
2023/11/09 06:11:43;;;;;;;0.00;0.00;;;20.40;50.90;;;;;;5013434;28;20197;-54
2023/11/09 06:14:17;;;;;;;0.03;0.03;;;20.40;50.80;;;;;;5013200;28;20270;-50
2023/11/09 06:16:48;;;;;;;0.05;0.05;;;20.40;50.80;;;;;;5023779;28;20629;-48
2023/11/09 06:19:20;;;;;;;0.10;0.10;;;20.40;50.70;;;;;;5001693;28;20289;-51
2023/11/09 06:21:53;;;;;;;0.00;0.00;;;20.40;50.70;;;;;;5013119;28;20228;-50
2023/11/09 06:24:23;;;;;;;0.00;0.00;;;20.40;50.70;;;;;;5012791;28;20319;-49
2023/11/09 06:26:55;;;;;;;0.00;0.00;;;20.40;50.70;;;;;;5009664;28;20230;-47
2023/11/09 06:29:28;;;;;;;0.00;0.00;;;20.40;50.70;;;;;;5009236;28;20184;-47
2023/11/09 06:32:00;;;;;;;0.10;0.10;;;20.40;50.60;;;;;;5018253;28;20562;-48
2023/11/09 06:34:31;;;;;;;0.00;0.00;;;20.40;50.60;;;;;;5027098;28;20550;-50
2023/11/09 06:37:03;;;;;;;0.00;0.00;;;20.40;50.60;;;;;;5030110;28;20576;-48
2023/11/09 06:39:35;;;;;;;0.10;0.10;;;20.40;50.70;;;;;;5022923;28;20214;-50
2023/11/09 06:42:10;;;;;;;0.10;0.10;;;20.40;50.70;;;;;;5012545;28;20193;-46
2023/11/09 06:44:43;;;;;;;0.00;0.00;;;20.30;50.60;;;;;;5020759;28;20224;-49
2023/11/09 06:47:15;;;;;;;0.00;0.00;;;20.40;50.70;;;;;;5029198;28;20196;-51
2023/11/09 06:49:47;;;;;;;0.10;0.10;;;20.40;50.70;;;;;;5016906;28;20189;-48
2023/11/09 06:52:18;;;;;;;0.00;0.00;;;20.40;50.70;;;;;;5017933;28;20610;-50
2023/11/09 06:54:49;;;;;;;0.10;0.10;;;20.40;50.70;;;;;;5019311;28;20236;-50
2023/11/09 06:57:21;;;;;;;0.00;0.00;;;20.30;50.60;;;;;;5011860;28;20224;-49
2023/11/09 06:59:54;;;;;;;0.05;0.05;;;20.40;50.60;;;;;;5011218;28;20571;-51
2023/11/09 07:02:26;;;;;;;0.00;0.00;;;20.30;50.50;;;;;;5012562;28;20189;-51
2023/11/09 07:04:57;;;;;;;0.00;0.00;;;20.30;50.50;;;;;;5012625;28;20579;-49
2023/11/09 07:07:29;;;;;;;0.00;0.00;;;20.30;50.50;;;;;;5012547;28;20196;-51
2023/11/09 07:10:00;;;;;;;0.08;0.08;;;20.30;50.50;;;;;;5011353;28;20243;-48
2023/11/09 07:12:32;;;;;;;0.00;0.00;;;20.30;50.50;;;;;;5011066;28;20201;-48
2023/11/09 07:15:05;;;;;;;0.10;0.10;;;20.30;50.50;;;;;;5018417;28;20247;-48
2023/11/09 07:17:36;;;;;;;0.10;0.10;;;20.30;50.50;;;;;;5025606;28;20899;-51
2023/11/09 07:20:07;;;;;;;0.03;0.03;;;20.30;50.50;;;;;;5018791;28;20200;-47
2023/11/09 07:22:39;;;;;;;0.00;0.00;;;20.30;50.50;;;;;;5025830;28;20238;-49
2023/11/09 07:25:10;;;;;;;0.10;0.10;;;20.30;50.50;;;;;;5013539;28;20243;-48
2023/11/09 07:27:41;;;;;;;0.00;0.00;;;20.30;50.50;;;;;;5013461;28;20287;-51
2023/11/09 07:30:14;;;;;;;0.10;0.10;;;20.30;50.50;;;;;;5014515;28;20661;-48
2023/11/09 07:32:44;;;;;;;0.00;0.00;;;20.30;50.50;;;;;;5018895;28;20203;-48
2023/11/09 07:35:15;;;;;;;0.00;0.00;;;20.30;50.50;;;;;;5016988;28;20680;-46
2023/11/09 07:37:46;;;;;;;0.00;0.00;;;20.30;51.10;;;;;;5017434;28;20204;-48
2023/11/09 07:40:18;;;;;;;0.08;0.08;;;20.30;50.50;;;;;;5013908;28;20647;-49
2023/11/09 07:42:48;;;;;;;0.00;0.00;;;20.20;50.50;;;;;;5022533;28;20215;-50
2023/11/09 07:45:22;;;;;;;0.10;0.10;;;20.20;50.40;;;;;;5024126;28;21139;-47
2023/11/09 07:47:52;;;;;;;0.00;0.00;;;20.20;50.40;;;;;;5029027;28;20219;-47
2023/11/09 07:50:23;;;;;;;0.00;0.00;;;20.20;50.30;;;;;;5021215;28;20250;-46
2023/11/09 07:52:54;;;;;;;0.10;0.10;;;20.20;50.40;;;;;;5030153;28;20228;-47
2023/11/09 07:55:24;;;;;;;0.00;0.00;;;20.20;50.30;;;;;;5011894;28;20319;-48
2023/11/09 07:57:56;;;;;;;0.00;0.00;;;20.20;50.30;;;;;;5028682;28;20200;-48
2023/11/09 08:00:29;;;;;;;0.08;0.08;;;20.20;51.00;;;;;;5015220;28;20193;-48
2023/11/09 08:03:00;;;;;;;0.00;0.00;;;20.10;50.30;;;;;;5019531;28;20216;-47
2023/11/09 08:05:32;;;;;;;0.00;0.00;;;20.10;50.30;;;;;;5016059;28;20255;-47
2023/11/09 08:08:03;;;;;;;0.00;0.00;;;20.10;50.30;;;;;;5022422;28;20884;-49
2023/11/09 08:10:35;;;;;;;0.10;0.10;;;20.10;50.30;;;;;;5011679;28;20267;-46
2023/11/09 08:13:06;;;;;;;0.05;0.05;;;20.10;50.30;;;;;;5024581;28;20203;-47
2023/11/09 08:15:40;;;;;;;0.10;0.10;;;20.10;50.40;;;;;;5021987;28;20372;-47
2023/11/09 08:18:10;;;;;;;0.00;0.00;;;20.10;50.30;;;;;;5027753;28;20188;-47
2023/11/09 08:20:41;;;;;;;0.00;0.00;;;20.10;50.30;;;;;;5019530;28;20196;-47
2023/11/09 08:23:11;;;;;;;0.00;0.00;;;20.10;50.30;;;;;;5012628;28;20200;-48
2023/11/09 08:25:42;;;;;;;0.00;0.00;;;20.10;50.30;;;;;;5010846;28;20232;-47
2023/11/09 08:28:13;;;;;;;0.00;0.00;;;20.10;50.20;;;;;;5021938;28;20223;-46
2023/11/09 08:30:46;;;;;;;0.00;0.00;;;20.00;50.20;;;;;;5016699;28;20196;-49
2023/11/09 08:33:21;;;;;;;0.00;0.00;;;20.00;50.20;;;;;;5028268;28;20196;-48
2023/11/09 08:35:53;;;;;;;0.10;0.10;;;20.00;50.20;;;;;;5009596;28;20216;-47
2023/11/09 08:38:24;;;;;;;0.10;0.10;;;20.10;50.20;;;;;;5022804;28;20240;-47
2023/11/09 08:40:54;;;;;;;0.10;0.10;;;20.00;50.20;;;;;;5020741;28;20197;-49
2023/11/09 08:43:26;;;;;;;0.00;0.00;;;20.00;50.20;;;;;;5026045;28;20192;-50
2023/11/09 08:45:58;;;;;;;0.00;0.00;;;20.00;50.20;;;;;;5016045;28;20303;-48
2023/11/09 08:48:30;;;;;;;0.10;0.10;;;19.90;50.20;;;;;;5002011;28;20189;-47
2023/11/09 08:51:01;;;;;;;0.00;0.00;;;19.90;50.20;;;;;;5008922;28;20197;-47
2023/11/09 08:53:32;;;;;;;0.00;0.00;;;19.90;50.20;;;;;;5010105;28;20235;-46
2023/11/09 08:56:05;;;;;;;0.00;0.00;;;19.90;50.20;;;;;;5010211;28;20259;-47
2023/11/09 08:58:39;;;;;;;0.00;0.00;;;19.90;50.20;;;;;;5011011;28;20243;-48
2023/11/09 09:01:18;;;;;;;0.00;0.00;;;19.90;50.20;;;;;;5010610;28;20203;-48
2023/11/09 09:03:51;;;;;;;0.00;0.00;;;19.90;50.20;;;;;;5010688;28;20567;-48
2023/11/09 09:06:21;;;;;;;0.00;0.00;;;19.90;50.10;;;;;;5010647;28;20263;-49
2023/11/09 09:08:52;;;;;;;0.00;0.00;;;19.90;50.20;;;;;;5010170;28;20197;-47
2023/11/09 09:11:23;;;;;;;0.00;0.00;;;19.90;50.10;;;;;;5010815;28;20197;-50
2023/11/09 09:13:53;;;;;;;0.10;0.10;;;19.80;50.10;;;;;;5010038;28;20231;-48
2023/11/09 09:16:26;;;;;;;0.10;0.10;;;19.80;50.10;;;;;;5011046;28;20711;-48
2023/11/09 09:18:56;;;;;;;0.10;0.10;;;19.80;50.10;;;;;;5009510;28;20356;-48
2023/11/09 09:21:27;;;;;;;0.00;0.00;;;19.80;50.10;;;;;;5002266;28;20194;-49
2023/11/09 09:23:58;;;;;;;0.00;0.00;;;19.80;50.00;;;;;;4991582;28;20205;-47
2023/11/09 09:26:30;;;;;;;0.00;0.00;;;19.80;50.70;;;;;;5010424;28;20240;-47
2023/11/09 09:29:01;;;;;;;0.08;0.08;;;19.80;50.10;;;;;;5010070;28;20193;-48
2023/11/09 09:31:33;;;;;;;0.00;0.00;;;19.80;50.10;;;;;;5010538;28;20197;-47
2023/11/09 09:34:07;;;;;;;0.00;0.00;;;19.70;50.70;;;;;;5010306;28;20204;-47
2023/11/09 09:36:40;;;;;;;0.00;0.00;;;19.70;50.10;;;;;;5009975;28;20229;-48
2023/11/09 09:39:14;;;;;;;0.10;0.10;;;19.70;50.10;;;;;;5011201;28;20193;-46
2023/11/09 09:41:50;;;;;;;0.05;0.05;;;19.70;50.10;;;;;;5011151;28;20661;-48
2023/11/09 09:44:21;;;;;;;0.08;0.08;;;19.70;50.10;;;;;;5013094;28;20279;-47
2023/11/09 09:46:58;;;;;;;0.00;0.00;;;19.70;50.10;;;;;;5014005;28;20275;-47
2023/11/09 09:49:28;;;;;;;0.00;0.00;;;19.70;50.10;;;;;;5014115;28;20196;-46
2023/11/09 09:52:01;;;;;;;0.00;0.00;;;19.70;50.10;;;;;;5013150;28;20200;-46
2023/11/09 09:54:32;;;;;;;0.00;0.00;;;19.70;50.10;;;;;;5030487;23;20448;-56
2023/11/09 09:57:03;;;;;;;0.10;0.10;;;19.70;50.10;;;;;;5013847;28;20228;-55
2023/11/09 09:59:35;;;;;;;0.00;0.00;;;19.70;50.10;;;;;;5013738;28;20185;-54
2023/11/09 10:02:12;;;;;;;0.00;0.00;;;19.60;50.00;;;;;;5013640;28;20201;-54
2023/11/09 10:04:45;;;;;;;0.00;0.00;;;19.60;50.00;;;;;;5015781;28;20204;-55
2023/11/09 10:07:15;;;;;;;0.00;0.00;;;19.60;50.00;;;;;;5013262;28;20276;-54
2023/11/09 10:09:46;;;;;;;0.00;0.00;;;19.60;50.00;;;;;;5014976;28;20251;-56
2023/11/09 10:12:17;;;;;;;0.00;0.00;;;19.60;50.00;;;;;;5013473;28;20645;-53
2023/11/09 10:14:46;;;;;;;0.00;0.00;;;19.60;50.00;;;;;;5013271;28;20201;-53
2023/11/09 10:17:19;;;;;;;0.00;0.00;;;19.60;50.00;;;;;;5013454;28;20215;-54
2023/11/09 10:19:51;;;;;;;0.00;0.00;;;19.60;50.00;;;;;;5013338;28;20197;-53
2023/11/09 10:22:23;;;;;;;0.10;0.10;;;19.60;50.00;;;;;;5013253;28;20628;-52
2023/11/09 10:24:56;;;;;;;0.05;0.05;;;19.50;50.00;;;;;;5013008;28;20189;-54
2023/11/09 10:27:30;;;;;;;0.00;0.00;;;19.50;50.00;;;;;;5016331;28;20185;-55
2023/11/09 10:30:02;;;;;;;0.08;0.08;;;19.50;50.00;;;;;;5011049;28;20276;-56
2023/11/09 10:32:36;;;;;;;0.00;0.00;;;19.50;50.10;;;;;;5013265;28;20555;-54
2023/11/09 10:35:07;;;;;;;0.00;0.00;;;19.50;50.00;;;;;;5011747;28;20208;-54
2023/11/09 10:37:39;;;;;;;0.00;0.00;;;19.50;50.00;;;;;;5012345;28;20204;-53
2023/11/09 10:40:13;;;;;;;0.00;0.00;;;19.50;50.00;;;;;;5018164;28;20189;-55
2023/11/09 10:42:44;;;;;;;0.00;0.00;;;19.50;50.10;;;;;;5026491;28;20228;-54
2023/11/09 10:45:15;;;;;;;0.00;0.00;;;19.50;50.00;;;;;;5018170;28;20208;-54
2023/11/09 10:47:48;;;;;;;0.00;0.00;;;19.50;50.00;;;;;;5022985;28;20239;-53
2023/11/09 10:50:21;;;;;;;0.03;0.03;;;19.50;50.00;;;;;;5018939;28;20667;-53
2023/11/09 10:52:53;;;;;;;0.10;0.10;;;19.50;50.00;;;;;;5018949;28;20201;-54
2023/11/09 10:55:25;;;;;;;0.10;0.10;;;19.40;50.00;;;;;;5024141;28;20234;-54
2023/11/09 10:57:56;;;;;;;0.08;0.08;;;19.40;50.00;;;;;;5032728;28;20196;-55
2023/11/09 11:00:42;;;;;;;0.10;0.10;;;19.40;50.00;;;;;;5032808;28;20196;-54
2023/11/09 11:03:25;;;;;;;0.00;0.00;;;19.40;50.10;;;;;;5012081;28;20488;-54
2023/11/09 11:06:01;;;;;;;0.00;0.00;;;19.40;50.00;;;;;;5010899;28;20556;-55
2023/11/09 11:08:35;;;;;;;0.00;0.00;;;19.40;50.00;;;;;;5010339;28;20750;-50
2023/11/09 11:11:07;;;;;;;0.00;0.00;;;19.30;50.00;;;;;;5012005;28;20197;-53
2023/11/09 11:13:40;;;;;;;0.00;0.00;;;19.30;50.00;;;;;;5012925;28;20709;-54
2023/11/09 11:16:38;;;;;;;0.00;0.00;;;19.30;50.10;;;;;;5012425;28;20209;-53
2023/11/09 11:19:29;;;;;;;0.00;0.00;;;19.30;50.10;;;;;;5011417;28;20201;-56
2023/11/09 11:22:22;;;;;;;0.10;0.10;;;19.30;50.00;;;;;;5011266;28;20251;-53
2023/11/09 11:25:30;;;;;;;0.00;0.00;;;19.30;50.00;;;;;;5010263;28;20189;-53
2023/11/09 11:28:02;;;;;;;0.10;0.10;;;19.30;50.10;;;;;;5011445;28;20655;-54
2023/11/09 11:30:36;;;;;;;0.00;0.00;;;19.30;50.00;;;;;;5010097;28;20189;-53
2023/11/09 11:33:14;;;;;;;0.00;0.00;;;19.20;50.00;;;;;;5011843;28;20234;-54
2023/11/09 11:35:48;;;;;;;0.10;0.10;;;19.20;50.00;;;;;;5011392;28;20719;-53
2023/11/09 11:38:26;;;;;;;0.10;0.10;;;19.20;50.10;;;;;;5011856;28;20601;-54
2023/11/09 11:41:03;;;;;;;0.00;0.00;;;19.20;50.10;;;;;;5003354;28;20284;-54
2023/11/09 11:43:42;;;;;;;0.08;0.08;;;19.20;50.10;;;;;;5011990;28;20200;-53
2023/11/09 11:46:13;;;;;;;0.03;0.03;;;19.10;50.10;;;;;;5010071;28;20235;-49
2023/11/09 11:48:50;;;;;;;0.00;0.00;;;19.20;50.10;;;;;;5013890;28;20277;-52
2023/11/09 11:51:23;;;;;;;0.10;0.10;;;19.20;50.20;;;;;;5011624;28;20196;-54
2023/11/09 11:54:00;;;;;;;0.08;0.08;;;19.10;50.10;;;;;;5009591;28;20272;-53
2023/11/09 11:56:35;;;;;;;0.10;0.10;;;19.10;50.10;;;;;;5009303;28;20330;-54
2023/11/09 11:59:09;;;;;;;0.03;0.03;;;19.10;50.20;;;;;;5011560;28;20193;-48
2023/11/09 12:01:43;;;;;;;0.00;0.00;;;19.10;50.10;;;;;;5011985;28;20189;-53
2023/11/09 12:04:15;;;;;;;0.00;0.00;;;19.10;50.20;;;;;;5011840;28;20582;-54
2023/11/09 12:06:52;;;;;;;0.00;0.00;;;19.10;50.20;;;;;;5010629;28;20220;-54
2023/11/09 12:09:22;;;;;;;0.00;0.00;;;19.10;50.20;;;;;;5011512;28;20236;-50
2023/11/09 12:11:55;;;;;;;0.00;0.00;;;19.10;50.20;;;;;;5011317;28;20547;-52
2023/11/09 12:14:26;;;;;;;0.10;0.10;;;19.10;50.10;;;;;;5011757;28;20189;-54
2023/11/09 12:16:56;;;;;;;0.10;0.10;;;19.10;50.10;;;;;;5011826;28;20217;-57
2023/11/09 12:19:27;;;;;;;0.10;0.10;;;19.10;50.20;;;;;;5009422;28;20193;-55
2023/11/09 12:22:00;;;;;;;0.08;0.08;;;19.00;50.10;;;;;;5012335;28;20196;-54
2023/11/09 12:24:32;;;;;;;0.00;0.00;;;19.00;50.10;;;;;;5012169;28;20204;-57
2023/11/09 12:27:07;;;;;;;0.00;0.00;;;19.00;50.70;;;;;;5011660;28;20607;-56
2023/11/09 12:29:41;;;;;;;0.00;0.00;;;19.00;50.10;;;;;;5011786;28;20258;-54
2023/11/09 12:32:12;;;;;;;0.05;0.05;;;19.00;50.10;;;;;;5011608;28;20207;-54
2023/11/09 12:34:44;;;;;;;0.10;0.10;;;19.00;50.10;;;;;;5011678;28;20203;-54
2023/11/09 12:37:17;;;;;;;0.00;0.00;;;19.00;50.10;;;;;;5012266;28;20197;-51
2023/11/09 12:39:48;;;;;;;0.00;0.00;;;19.00;50.20;;;;;;5011973;28;20192;-54
2023/11/09 12:42:24;;;;;;;0.00;0.00;;;19.00;50.20;;;;;;5011867;28;20201;-56
2023/11/09 12:44:56;;;;;;;0.10;0.10;;;18.90;50.10;;;;;;5011424;28;20613;-54
2023/11/09 12:47:27;;;;;;;0.00;0.00;;;18.90;50.10;;;;;;5011258;28;20224;-51
2023/11/09 12:50:04;;;;;;;0.00;0.00;;;18.90;50.10;;;;;;5015380;28;20230;-54
2023/11/09 12:52:37;;;;;;;0.00;0.00;;;18.90;50.20;;;;;;5030904;28;20241;-54
2023/11/09 12:55:08;;;;;;;0.00;0.00;;;18.90;50.10;;;;;;5031500;28;20204;-54
2023/11/09 12:57:43;;;;;;;0.10;0.10;;;18.90;50.10;;;;;;5030776;28;20258;-51
2023/11/09 13:00:29;;;;;;;0.05;0.05;;;18.90;50.10;;;;;;5030627;28;20203;-53
2023/11/09 13:03:03;;;;;;;0.00;0.00;;;18.90;50.10;;;;;;5031174;28;20200;-55
2023/11/09 13:05:37;;;;;;;0.10;0.10;;;18.90;50.10;;;;;;5031303;28;20230;-53
2023/11/09 13:08:11;;;;;;;0.10;0.10;;;18.90;50.10;;;;;;5030882;28;20199;-53
2023/11/09 13:10:49;;;;;;;0.00;0.00;;;18.80;50.00;;;;;;5028279;28;20196;-51
2023/11/09 13:13:25;;;;;;;0.00;0.00;;;18.80;50.10;;;;;;5011127;28;20197;-54
2023/11/09 13:15:57;;;;;;;0.10;0.10;;;18.80;50.10;;;;;;5010737;28;20217;-54
2023/11/09 13:18:28;;;;;;;0.00;0.00;;;18.80;50.10;;;;;;5014572;28;20203;-54
2023/11/09 13:20:59;;;;;;;0.00;0.00;;;18.80;50.10;;;;;;5015269;28;20695;-54
2023/11/09 13:23:34;;;;;;;0.00;0.00;;;18.70;50.10;;;;;;5015221;28;20201;-53
2023/11/09 13:26:05;;;;;;;0.10;0.10;;;18.70;50.10;;;;;;5014208;28;20248;-53